createdAt,value
2023-01-25T00:00:40.488Z,72.00
2023-01-25T00:03:07.657Z,60.50
2023-01-25T00:05:34.890Z,62.87
2023-01-25T00:08:02.128Z,60.67
2023-01-25T00:10:29.341Z,69.93
2023-01-25T00:12:57.259Z,65.00
2023-01-25T00:15:24.731Z,78.83
2023-01-25T00:17:52.003Z,76.83
2023-01-25T00:20:19.309Z,66.50
2023-01-25T00:22:46.421Z,73.40
2023-01-25T00:25:13.693Z,65.27
2023-01-25T00:27:40.894Z,68.93
2023-01-25T00:30:08.763Z,68.43
2023-01-25T00:32:54.600Z,63.57
2023-01-25T00:35:22.548Z,64.63
2023-01-25T00:37:52.568Z,61.20
2023-01-25T00:40:19.857Z,64.77
2023-01-25T00:42:47.003Z,58.40
2023-01-25T00:45:14.348Z,64.00
2023-01-25T00:47:42.260Z,54.03
2023-01-25T00:50:09.984Z,60.30
2023-01-25T00:52:37.341Z,60.57
2023-01-25T00:55:05.016Z,62.17
2023-01-25T00:57:33.200Z,53.53
2023-01-25T01:00:00.363Z,56.00
2023-01-25T01:02:27.539Z,62.30
2023-01-25T01:04:56.866Z,58.30
2023-01-25T01:07:24.060Z,70.53
2023-01-25T01:09:51.259Z,61.47
2023-01-25T01:12:18.368Z,60.13
2023-01-25T01:14:45.887Z,68.33
2023-01-25T01:17:13.049Z,65.13
2023-01-25T01:19:40.144Z,60.43
2023-01-25T01:22:07.340Z,64.67
2023-01-25T01:24:34.531Z,69.17
2023-01-25T01:27:01.729Z,77.43
2023-01-25T01:29:28.836Z,66.97
2023-01-25T01:31:56.926Z,70.70
2023-01-25T01:34:24.245Z,64.10
2023-01-25T01:36:52.260Z,66.17
2023-01-25T01:39:19.645Z,75.63
2023-01-25T01:41:46.803Z,76.70
2023-01-25T01:44:19.989Z,73.67
2023-01-25T01:46:55.101Z,71.47
2023-01-25T01:49:29.351Z,70.23
2023-01-25T01:52:02.020Z,66.73
2023-01-25T01:54:41.490Z,66.77
2023-01-25T01:57:22.195Z,68.10
2023-01-25T02:00:18.025Z,67.70
2023-01-25T02:02:46.121Z,66.13
2023-01-25T02:05:20.892Z,77.47
2023-01-25T02:07:52.228Z,67.77
2023-01-25T02:10:22.054Z,70.93
2023-01-25T02:12:49.543Z,71.03
2023-01-25T02:15:16.709Z,68.03
2023-01-25T02:17:43.939Z,56.67
2023-01-25T02:20:29.816Z,72.10
2023-01-25T02:23:09.240Z,54.80
2023-01-25T02:25:36.893Z,62.27
2023-01-25T02:28:14.879Z,70.17
2023-01-25T02:30:43.495Z,96.70
2023-01-25T02:33:10.712Z,82.07
2023-01-25T02:35:44.731Z,79.63
2023-01-25T02:38:15.247Z,61.40
2023-01-25T02:40:56.281Z,88.47
2023-01-25T02:43:25.201Z,68.73
2023-01-25T02:46:00.733Z,63.73
2023-01-25T02:48:27.845Z,83.20
2023-01-25T02:50:55.122Z,116.77
2023-01-25T02:53:22.597Z,96.97
2023-01-25T02:55:49.671Z,106.47
2023-01-25T02:58:16.790Z,84.60
2023-01-25T03:00:44.021Z,75.77
2023-01-25T03:03:11.136Z,79.23
2023-01-25T03:05:38.231Z,68.47
2023-01-25T03:08:05.638Z,78.60
2023-01-25T03:10:32.891Z,73.00
2023-01-25T03:13:00.029Z,72.63
2023-01-25T03:15:27.703Z,70.53
2023-01-25T03:17:57.169Z,69.60
2023-01-25T03:20:24.321Z,56.57
2023-01-25T03:22:51.869Z,64.43
2023-01-25T03:25:19.154Z,67.03
2023-01-25T03:27:46.261Z,65.90
2023-01-25T03:30:13.610Z,58.23
2023-01-25T03:32:40.872Z,59.53
2023-01-25T03:35:08.684Z,64.63
2023-01-25T03:37:36.244Z,61.73
2023-01-25T03:40:03.816Z,63.23
2023-01-25T03:42:33.973Z,57.47
2023-01-25T03:45:01.130Z,58.20
2023-01-25T03:47:29.004Z,56.07
2023-01-25T03:49:56.316Z,55.83
2023-01-25T03:52:24.845Z,51.33
2023-01-25T03:54:51.966Z,45.10
2023-01-25T03:57:19.068Z,43.17
2023-01-25T03:59:46.323Z,42.83
2023-01-25T04:02:14.896Z,45.27
2023-01-25T04:04:42.111Z,49.80
2023-01-25T04:07:09.223Z,57.53
2023-01-25T04:09:36.381Z,52.23
2023-01-25T04:12:03.622Z,53.23
2023-01-25T04:14:43.566Z,47.07
2023-01-25T04:17:11.483Z,54.30
2023-01-25T04:19:38.914Z,55.13
2023-01-25T04:22:06.620Z,61.60
2023-01-25T04:24:33.746Z,60.40
2023-01-25T04:27:00.893Z,48.80
2023-01-25T04:29:40.054Z,44.37
2023-01-25T04:32:08.378Z,48.90
2023-01-25T04:34:35.616Z,42.27
2023-01-25T04:37:02.753Z,51.23
2023-01-25T04:39:29.890Z,46.67
2023-01-25T04:41:57.172Z,49.87
2023-01-25T04:44:24.312Z,49.13
2023-01-25T04:46:51.401Z,46.90
2023-01-25T04:49:18.610Z,59.50
2023-01-25T04:51:45.734Z,56.90
2023-01-25T04:54:13.013Z,45.40
2023-01-25T04:56:40.631Z,43.83
2023-01-25T04:59:07.730Z,48.53
2023-01-25T05:01:35.090Z,45.40
2023-01-25T05:04:02.313Z,48.97
2023-01-25T05:06:29.492Z,48.33
2023-01-25T05:08:56.621Z,45.10
2023-01-25T05:11:23.786Z,50.03
2023-01-25T05:13:52.232Z,48.40
2023-01-25T05:16:19.554Z,45.20
2023-01-25T05:18:49.342Z,49.00
2023-01-25T05:21:36.764Z,69.33
2023-01-25T05:24:04.135Z,63.97
2023-01-25T05:26:49.962Z,62.43
2023-01-25T05:29:17.687Z,68.37
2023-01-25T05:31:44.822Z,62.33
2023-01-25T05:34:12.035Z,55.90
2023-01-25T05:36:39.363Z,52.80
2023-01-25T05:39:07.303Z,49.37
2023-01-25T05:41:34.439Z,47.17
2023-01-25T05:44:01.819Z,53.20
2023-01-25T05:46:29.707Z,58.33
2023-01-25T05:48:56.905Z,48.97
2023-01-25T05:51:24.656Z,49.23
2023-01-25T05:53:56.184Z,52.73
2023-01-25T05:56:23.910Z,54.13
2023-01-25T05:58:55.182Z,55.03
2023-01-25T06:01:23.004Z,59.83
2023-01-25T06:03:50.415Z,52.77
2023-01-25T06:06:17.757Z,45.43
2023-01-25T06:08:45.175Z,49.87
2023-01-25T06:11:16.674Z,43.93
2023-01-25T06:13:44.118Z,42.87
2023-01-25T06:16:11.539Z,46.63
2023-01-25T06:18:39.164Z,40.90
2023-01-25T06:21:06.557Z,56.77
2023-01-25T06:23:34.047Z,48.57
2023-01-25T06:26:03.860Z,52.67
2023-01-25T06:28:32.476Z,53.83
2023-01-25T06:31:14.889Z,51.87
2023-01-25T06:33:43.623Z,55.73
2023-01-25T06:36:15.837Z,51.67
2023-01-25T06:38:43.373Z,45.80
2023-01-25T06:41:12.781Z,44.70
2023-01-25T06:43:40.209Z,48.67
2023-01-25T06:46:12.280Z,55.00
2023-01-25T06:48:41.767Z,50.10
2023-01-25T06:51:14.099Z,57.47
2023-01-25T06:53:45.374Z,61.50
2023-01-25T06:56:21.847Z,63.40
2023-01-25T06:58:49.989Z,53.57
2023-01-25T14:34:55.913Z,65.83
2023-01-25T14:37:34.195Z,67.17
2023-01-25T14:40:12.065Z,64.87
2023-01-25T14:42:40.285Z,71.67
2023-01-25T14:45:14.263Z,61.67
2023-01-25T14:47:45.255Z,66.50
2023-01-25T14:50:32.647Z,59.17
2023-01-25T14:53:09.117Z,68.93
2023-01-25T14:55:37.482Z,66.90
2023-01-25T14:58:07.345Z,57.37
2023-01-25T15:00:36.476Z,66.13
2023-01-25T15:03:06.921Z,68.37
2023-01-25T15:05:39.401Z,71.90
2023-01-25T15:08:09.528Z,68.50
2023-01-25T15:10:39.085Z,159.73
2023-01-25T15:13:15.886Z,88.63
2023-01-25T15:15:54.978Z,88.57
2023-01-25T15:18:45.507Z,88.87
2023-01-25T15:21:22.537Z,93.60
2023-01-25T15:23:51.388Z,133.77
2023-01-25T15:26:24.066Z,78.07
2023-01-25T15:28:54.317Z,141.00
2023-01-25T15:31:31.233Z,120.00
2023-01-25T15:34:00.595Z,346.47
2023-01-25T15:36:29.260Z,313.43
2023-01-25T15:38:56.821Z,220.07
2023-01-25T15:41:24.481Z,490.93
2023-01-25T15:43:52.679Z,479.67
2023-01-25T15:46:27.828Z,1251.23
2023-01-25T15:48:58.915Z,431.63
2023-01-25T15:51:26.812Z,278.17
2023-01-25T15:53:54.516Z,177.60
2023-01-25T15:56:34.869Z,132.33
2023-01-25T15:59:08.391Z,174.10
2023-01-25T16:01:39.686Z,154.10
2023-01-25T16:04:07.757Z,169.60
2023-01-25T16:06:50.954Z,155.57
2023-01-25T16:09:31.610Z,147.07
2023-01-25T16:12:01.594Z,136.63
2023-01-25T16:14:31.877Z,134.73
2023-01-25T16:17:03.531Z,147.03
2023-01-25T16:19:32.738Z,98.40
2023-01-25T16:22:00.989Z,110.07
2023-01-25T16:24:28.700Z,105.47
2023-01-25T16:26:58.336Z,98.77
2023-01-25T16:29:25.802Z,106.27
2023-01-25T16:31:54.271Z,116.20
2023-01-25T16:34:23.032Z,132.30
2023-01-25T16:36:51.599Z,102.23
2023-01-25T16:39:22.717Z,116.97
2023-01-25T16:41:50.715Z,106.07
2023-01-25T16:44:18.534Z,119.03
2023-01-25T16:46:48.644Z,102.60
2023-01-25T16:49:21.634Z,114.00
2023-01-25T16:51:52.246Z,126.67
2023-01-25T16:54:21.383Z,147.03
2023-01-25T16:56:50.099Z,143.87
2023-01-25T16:59:18.896Z,155.47
2023-01-25T17:01:47.212Z,172.60
2023-01-25T17:04:15.702Z,176.67
2023-01-25T17:06:46.926Z,174.87
2023-01-25T17:09:23.390Z,211.13
2023-01-25T17:11:52.124Z,244.70
2023-01-25T17:14:21.621Z,230.17
2023-01-25T17:16:52.224Z,206.47
2023-01-25T17:19:20.299Z,210.90
2023-01-25T17:21:48.573Z,215.43
2023-01-25T17:24:19.765Z,135.73
2023-01-25T17:26:47.441Z,91.83
2023-01-25T17:29:15.000Z,83.57
2023-01-25T17:31:44.698Z,81.50
2023-01-25T17:34:15.665Z,92.17
2023-01-25T17:36:44.604Z,84.77
2023-01-25T17:39:17.498Z,78.73
2023-01-25T17:41:46.758Z,139.27
2023-01-25T17:44:17.874Z,139.03
2023-01-25T17:46:45.149Z,140.50
2023-01-25T17:49:14.601Z,184.97
2023-01-25T17:51:42.591Z,145.17
2023-01-25T17:54:12.220Z,140.43
2023-01-25T17:56:40.497Z,204.00
2023-01-25T17:59:11.942Z,311.50
2023-01-25T18:01:40.093Z,389.93
2023-01-25T18:04:09.404Z,298.47
2023-01-25T18:06:37.231Z,325.93
2023-01-25T18:09:07.151Z,218.23
2023-01-25T18:11:37.090Z,201.40
2023-01-25T18:14:10.301Z,206.67
2023-01-25T18:16:41.191Z,189.87
2023-01-25T18:19:09.227Z,239.27
2023-01-25T18:21:37.089Z,210.43
2023-01-25T18:24:26.563Z,204.50
2023-01-25T18:27:06.209Z,188.47
2023-01-25T18:29:45.495Z,191.43
2023-01-25T18:32:13.299Z,188.33
2023-01-25T18:34:40.665Z,337.80
2023-01-25T18:37:18.461Z,372.33
2023-01-25T18:39:49.637Z,345.90
2023-01-25T18:42:17.579Z,336.47
2023-01-25T18:44:48.613Z,273.87
2023-01-25T18:47:20.700Z,184.07
2023-01-25T18:49:54.264Z,188.70
2023-01-25T18:52:26.308Z,171.33
2023-01-25T18:54:53.825Z,114.40
2023-01-25T18:57:21.568Z,108.43
2023-01-25T18:59:50.155Z,103.27
2023-01-25T19:02:20.127Z,102.30
2023-01-25T19:04:47.485Z,111.33
2023-01-25T19:07:15.152Z,120.13
2023-01-25T19:09:45.716Z,121.57
2023-01-25T19:12:13.232Z,127.17
2023-01-25T19:14:40.855Z,131.53
2023-01-25T19:17:08.739Z,120.00
2023-01-25T19:19:36.177Z,121.60
2023-01-25T19:22:04.242Z,108.67
2023-01-25T19:27:12.619Z,106.23
2023-01-25T19:29:42.413Z,103.70
2023-01-25T19:32:11.345Z,112.60
2023-01-25T19:34:39.651Z,108.13
2023-01-25T19:37:08.324Z,114.63
2023-01-25T19:39:36.687Z,118.33
2023-01-25T19:42:04.636Z,126.93
2023-01-25T19:44:35.083Z,131.43
2023-01-25T19:47:08.450Z,114.43
2023-01-25T19:49:38.105Z,136.97
2023-01-25T19:52:09.656Z,137.23
2023-01-25T19:54:45.915Z,114.13
2023-01-25T19:57:13.445Z,100.93
2023-01-25T19:59:44.763Z,130.83
2023-01-25T20:02:13.766Z,163.63
2023-01-25T20:04:41.928Z,343.87
2023-01-25T20:07:11.051Z,310.40
2023-01-25T20:09:39.178Z,225.87
2023-01-25T20:12:09.283Z,204.00
2023-01-25T20:14:39.425Z,128.90
2023-01-25T20:17:08.505Z,205.77
2023-01-25T20:19:38.175Z,183.93
2023-01-25T20:22:05.787Z,157.97
2023-01-25T20:24:33.824Z,221.87
2023-01-25T20:27:03.410Z,542.70
2023-01-25T20:29:33.059Z,338.47
2023-01-25T20:32:00.950Z,279.83
2023-01-25T20:34:29.271Z,232.40
2023-01-25T20:36:57.418Z,360.10
2023-01-25T20:39:27.257Z,330.93
2023-01-25T20:41:59.218Z,290.53
2023-01-25T20:44:27.172Z,293.50
2023-01-25T20:46:55.885Z,256.83
2023-01-25T20:49:23.363Z,216.43
2023-01-25T20:51:50.711Z,244.37
2023-01-25T20:54:18.993Z,320.17
2023-01-25T20:56:48.241Z,192.67
2023-01-25T20:59:16.827Z,170.20
2023-01-25T21:01:43.990Z,147.67
2023-01-25T21:04:11.819Z,160.30
2023-01-25T21:06:39.444Z,148.63
2023-01-25T21:09:07.218Z,122.23
2023-01-25T21:11:34.787Z,128.73
2023-01-25T21:14:02.275Z,121.10
2023-01-25T21:16:30.048Z,118.80
2023-01-25T21:18:59.569Z,127.57
2023-01-25T21:21:31.240Z,129.70
2023-01-25T21:24:00.402Z,127.20
2023-01-25T21:26:30.491Z,130.87
2023-01-25T21:28:59.496Z,124.53
2023-01-25T21:31:33.313Z,131.97
2023-01-25T21:34:01.394Z,140.50
2023-01-25T21:36:29.087Z,119.77
2023-01-25T21:38:56.967Z,110.93
2023-01-25T21:41:26.225Z,108.67
2023-01-25T21:44:14.041Z,83.60
2023-01-25T21:46:42.118Z,81.60
2023-01-25T21:49:29.751Z,83.23
2023-01-25T21:52:02.093Z,89.20
2023-01-25T21:54:35.010Z,93.00
2023-01-25T21:57:04.877Z,96.30
2023-01-25T21:59:32.325Z,119.47
2023-01-25T22:01:59.773Z,114.47
2023-01-25T22:04:27.365Z,111.23
2023-01-25T22:06:55.677Z,136.67
2023-01-25T22:09:23.382Z,145.50
2023-01-25T22:11:51.119Z,156.77
2023-01-25T22:14:25.008Z,116.30
2023-01-25T22:16:52.593Z,93.23
2023-01-25T22:19:20.888Z,80.70
2023-01-25T22:21:48.655Z,66.80
2023-01-25T22:24:16.012Z,97.70
2023-01-25T22:26:46.235Z,107.03
2023-01-25T22:29:14.301Z,136.27
2023-01-25T22:31:43.055Z,122.87
2023-01-25T22:34:10.645Z,99.80
2023-01-25T22:36:38.498Z,89.50
2023-01-25T22:39:06.036Z,151.40
2023-01-25T22:41:36.414Z,170.90
2023-01-25T22:44:03.616Z,182.10
2023-01-25T22:46:31.434Z,140.60
2023-01-25T22:48:59.549Z,154.93
2023-01-25T22:51:29.715Z,332.37
2023-01-25T22:53:58.769Z,188.93
2023-01-25T22:56:28.369Z,158.03
2023-01-25T22:58:56.093Z,169.70
2023-01-25T23:01:31.616Z,147.00
2023-01-25T23:03:59.604Z,130.13
2023-01-25T23:06:29.883Z,107.73
2023-01-25T23:09:01.683Z,135.33
2023-01-25T23:11:32.571Z,172.43
2023-01-25T23:14:19.003Z,181.47
2023-01-25T23:16:47.203Z,120.63
2023-01-25T23:19:15.080Z,189.90
2023-01-25T23:21:42.678Z,128.03
2023-01-25T23:24:10.416Z,153.37
2023-01-25T23:26:38.426Z,170.57
2023-01-25T23:29:07.783Z,235.13
2023-01-25T23:31:35.390Z,202.17
2023-01-25T23:34:04.346Z,190.00
2023-01-25T23:36:38.857Z,169.57
2023-01-25T23:39:06.538Z,154.67
2023-01-25T23:41:34.394Z,168.70
2023-01-25T23:44:02.120Z,156.83
2023-01-25T23:46:29.722Z,183.93
2023-01-25T23:48:57.343Z,156.17
2023-01-25T23:51:24.600Z,163.50
2023-01-25T23:53:53.610Z,150.47
2023-01-25T23:56:22.468Z,139.73
2023-01-25T23:58:50.531Z,134.57
